sensor_id;sensor_type;location;lat;lon;timestamp;pressure;altitude;pressure_sealevel;temperature;humidity
20009;BME280;10165;42.662;23.260;2023-10-13T00:00:41;94622.13;;;18.10;46.51
20009;BME280;10165;42.662;23.260;2023-10-13T00:03:09;94616.75;;;18.17;46.51
20009;BME280;10165;42.662;23.260;2023-10-13T00:05:43;94622.06;;;17.99;46.74
20009;BME280;10165;42.662;23.260;2023-10-13T00:08:11;94618.91;;;17.87;46.73
20009;BME280;10165;42.662;23.260;2023-10-13T00:10:38;94609.97;;;17.79;47.00
20009;BME280;10165;42.662;23.260;2023-10-13T00:13:05;94616.16;;;17.80;47.01
20009;BME280;10165;42.662;23.260;2023-10-13T00:15:46;94609.66;;;17.88;46.87
20009;BME280;10165;42.662;23.260;2023-10-13T00:18:30;94615.84;;;17.92;46.90
20009;BME280;10165;42.662;23.260;2023-10-13T00:21:03;94613.44;;;17.73;47.26
20009;BME280;10165;42.662;23.260;2023-10-13T00:23:44;94613.19;;;17.99;46.75
20009;BME280;10165;42.662;23.260;2023-10-13T00:26:22;94611.31;;;18.10;46.25
20009;BME280;10165;42.662;23.260;2023-10-13T00:28:57;94612.03;;;17.96;46.66
20009;BME280;10165;42.662;23.260;2023-10-13T00:31:43;94618.94;;;17.90;46.73
20009;BME280;10165;42.662;23.260;2023-10-13T00:34:15;94615.81;;;17.81;46.90
20009;BME280;10165;42.662;23.260;2023-10-13T00:36:45;94620.44;;;17.84;46.75
20009;BME280;10165;42.662;23.260;2023-10-13T00:39:38;94614.59;;;17.75;46.84
20009;BME280;10165;42.662;23.260;2023-10-13T00:42:12;94616.16;;;17.80;46.79
20009;BME280;10165;42.662;23.260;2023-10-13T00:44:46;94627.75;;;17.77;46.92
20009;BME280;10165;42.662;23.260;2023-10-13T00:47:16;94624.97;;;17.66;47.26
20009;BME280;10165;42.662;23.260;2023-10-13T00:50:03;94627.28;;;17.67;47.19
20009;BME280;10165;42.662;23.260;2023-10-13T00:52:31;94617.66;;;17.66;47.32
20009;BME280;10165;42.662;23.260;2023-10-13T00:55:00;94619.59;;;17.70;47.21
20009;BME280;10165;42.662;23.260;2023-10-13T00:57:27;94615.69;;;17.67;47.33
20009;BME280;10165;42.662;23.260;2023-10-13T00:59:56;94623.06;;;17.70;47.16
20009;BME280;10165;42.662;23.260;2023-10-13T01:02:38;94625.78;;;17.70;47.24
20009;BME280;10165;42.662;23.260;2023-10-13T01:05:06;94620.34;;;17.66;47.33
20009;BME280;10165;42.662;23.260;2023-10-13T01:07:37;94617.66;;;17.70;47.23
20009;BME280;10165;42.662;23.260;2023-10-13T01:10:08;94612.25;;;17.66;47.46
20009;BME280;10165;42.662;23.260;2023-10-13T01:12:39;94611.88;;;17.72;46.89
20009;BME280;10165;42.662;23.260;2023-10-13T01:15:10;94614.94;;;17.66;47.17
20009;BME280;10165;42.662;23.260;2023-10-13T01:17:38;94620.66;;;17.58;47.33
20009;BME280;10165;42.662;23.260;2023-10-13T01:20:05;94629.34;;;17.37;47.61
20009;BME280;10165;42.662;23.260;2023-10-13T01:22:32;94627.91;;;17.47;47.48
20009;BME280;10165;42.662;23.260;2023-10-13T01:24:59;94625.69;;;17.59;47.12
20009;BME280;10165;42.662;23.260;2023-10-13T01:27:37;94622.09;;;17.45;47.55
20009;BME280;10165;42.662;23.260;2023-10-13T01:30:08;94617.88;;;17.47;47.51
20009;BME280;10165;42.662;23.260;2023-10-13T01:32:49;94619.56;;;17.66;47.43
20009;BME280;10165;42.662;23.260;2023-10-13T01:35:18;94616.59;;;17.82;46.93
20009;BME280;10165;42.662;23.260;2023-10-13T01:38:02;94618.03;;;17.68;46.98
20009;BME280;10165;42.662;23.260;2023-10-13T01:40:28;94624.25;;;17.29;47.84
20009;BME280;10165;42.662;23.260;2023-10-13T01:43:01;94637.81;;;17.32;47.97
20009;BME280;10165;42.662;23.260;2023-10-13T01:45:28;94630.97;;;16.98;48.46
20009;BME280;10165;42.662;23.260;2023-10-13T01:47:58;94629.56;;;17.18;48.13
20009;BME280;10165;42.662;23.260;2023-10-13T01:50:26;94639.25;;;17.19;48.05
20009;BME280;10165;42.662;23.260;2023-10-13T01:52:57;94633.16;;;17.33;47.89
20009;BME280;10165;42.662;23.260;2023-10-13T01:55:39;94635.84;;;17.29;48.27
20009;BME280;10165;42.662;23.260;2023-10-13T01:58:11;94628.19;;;17.35;48.15
20009;BME280;10165;42.662;23.260;2023-10-13T02:00:45;94621.53;;;17.25;48.12
20009;BME280;10165;42.662;23.260;2023-10-13T02:03:15;94610.81;;;17.32;48.31
20009;BME280;10165;42.662;23.260;2023-10-13T02:05:44;94618.16;;;17.35;48.16
20009;BME280;10165;42.662;23.260;2023-10-13T02:08:17;94616.75;;;17.04;48.42
20009;BME280;10165;42.662;23.260;2023-10-13T02:10:55;94622.88;;;16.98;48.81
20009;BME280;10165;42.662;23.260;2023-10-13T02:13:23;94612.56;;;17.14;48.56
20009;BME280;10165;42.662;23.260;2023-10-13T02:15:55;94611.47;;;17.18;48.03
20009;BME280;10165;42.662;23.260;2023-10-13T02:18:24;94613.13;;;16.86;48.57
20009;BME280;10165;42.662;23.260;2023-10-13T02:21:01;94609.22;;;16.84;49.11
20009;BME280;10165;42.662;23.260;2023-10-13T02:23:31;94607.44;;;17.02;48.58
20009;BME280;10165;42.662;23.260;2023-10-13T02:26:01;94612.25;;;17.19;48.19
20009;BME280;10165;42.662;23.260;2023-10-13T02:28:30;94622.69;;;16.80;49.30
20009;BME280;10165;42.662;23.260;2023-10-13T02:31:02;94615.25;;;17.10;48.63
20009;BME280;10165;42.662;23.260;2023-10-13T02:33:30;94612.94;;;17.09;48.52
20009;BME280;10165;42.662;23.260;2023-10-13T02:36:01;94620.66;;;17.14;48.51
20009;BME280;10165;42.662;23.260;2023-10-13T02:38:33;94616.00;;;17.07;48.63
20009;BME280;10165;42.662;23.260;2023-10-13T02:41:13;94608.75;;;17.18;48.19
20009;BME280;10165;42.662;23.260;2023-10-13T02:43:55;94609.06;;;17.10;48.41
20009;BME280;10165;42.662;23.260;2023-10-13T02:46:23;94609.84;;;17.10;48.53
20009;BME280;10165;42.662;23.260;2023-10-13T02:48:50;94614.19;;;17.22;48.14
20009;BME280;10165;42.662;23.260;2023-10-13T02:51:20;94628.16;;;17.31;48.02
20009;BME280;10165;42.662;23.260;2023-10-13T02:53:52;94625.63;;;17.05;48.54
20009;BME280;10165;42.662;23.260;2023-10-13T02:56:19;94635.47;;;16.87;48.97
20009;BME280;10165;42.662;23.260;2023-10-13T02:58:51;94629.47;;;17.04;48.65
20009;BME280;10165;42.662;23.260;2023-10-13T03:01:23;94630.31;;;17.11;48.51
20009;BME280;10165;42.662;23.260;2023-10-13T03:03:54;94632.97;;;17.08;48.47
20009;BME280;10165;42.662;23.260;2023-10-13T03:06:23;94637.56;;;17.04;48.67
20009;BME280;10165;42.662;23.260;2023-10-13T03:11:58;94638.13;;;16.83;49.29
20009;BME280;10165;42.662;23.260;2023-10-13T03:14:24;94638.88;;;16.80;49.23
20009;BME280;10165;42.662;23.260;2023-10-13T03:17:02;94641.47;;;16.69;49.27
20009;BME280;10165;42.662;23.260;2023-10-13T03:19:32;94648.13;;;16.83;48.90
20009;BME280;10165;42.662;23.260;2023-10-13T03:22:01;94655.28;;;16.64;49.46
20009;BME280;10165;42.662;23.260;2023-10-13T03:24:39;94643.47;;;16.80;49.01
20009;BME280;10165;42.662;23.260;2023-10-13T03:27:16;94631.19;;;16.82;48.86
20009;BME280;10165;42.662;23.260;2023-10-13T03:29:45;94626.66;;;16.93;48.47
20009;BME280;10165;42.662;23.260;2023-10-13T03:32:21;94642.63;;;16.72;49.09
20009;BME280;10165;42.662;23.260;2023-10-13T03:34:48;94638.84;;;16.77;49.03
20009;BME280;10165;42.662;23.260;2023-10-13T03:37:27;94635.03;;;16.81;48.84
20009;BME280;10165;42.662;23.260;2023-10-13T03:40:12;94632.19;;;16.67;49.24
20009;BME280;10165;42.662;23.260;2023-10-13T03:42:51;94627.25;;;16.76;49.21
20009;BME280;10165;42.662;23.260;2023-10-13T03:45:42;94622.59;;;16.69;49.13
20009;BME280;10165;42.662;23.260;2023-10-13T03:48:11;94621.78;;;16.69;48.90
20009;BME280;10165;42.662;23.260;2023-10-13T03:51:00;94617.53;;;16.68;48.99
20009;BME280;10165;42.662;23.260;2023-10-13T03:53:34;94614.03;;;16.64;49.46
20009;BME280;10165;42.662;23.260;2023-10-13T03:56:03;94600.66;;;16.75;49.28
20009;BME280;10165;42.662;23.260;2023-10-13T03:58:39;94602.56;;;16.70;49.40
20009;BME280;10165;42.662;23.260;2023-10-13T04:01:09;94598.00;;;16.78;49.31
20009;BME280;10165;42.662;23.260;2023-10-13T04:03:41;94592.16;;;16.72;49.54
20009;BME280;10165;42.662;23.260;2023-10-13T04:06:31;94607.22;;;16.40;49.77
20009;BME280;10165;42.662;23.260;2023-10-13T04:09:22;94608.50;;;16.53;49.70
20009;BME280;10165;42.662;23.260;2023-10-13T04:12:02;94604.03;;;16.64;49.07
20009;BME280;10165;42.662;23.260;2023-10-13T04:14:36;94601.81;;;16.73;48.84
20009;BME280;10165;42.662;23.260;2023-10-13T04:17:21;94604.03;;;16.64;49.25
20009;BME280;10165;42.662;23.260;2023-10-13T04:19:56;94604.81;;;16.65;49.30
20009;BME280;10165;42.662;23.260;2023-10-13T04:22:40;94611.00;;;16.36;50.31
20009;BME280;10165;42.662;23.260;2023-10-13T04:25:19;94614.91;;;16.42;49.97
20009;BME280;10165;42.662;23.260;2023-10-13T04:28:06;94620.47;;;16.56;49.52
20009;BME280;10165;42.662;23.260;2023-10-13T04:30:52;94618.56;;;16.56;49.46
20009;BME280;10165;42.662;23.260;2023-10-13T04:33:23;94616.97;;;16.52;49.72
20009;BME280;10165;42.662;23.260;2023-10-13T04:36:12;94628.72;;;16.66;49.25
20009;BME280;10165;42.662;23.260;2023-10-13T04:38:56;94624.25;;;16.48;49.51
20009;BME280;10165;42.662;23.260;2023-10-13T04:41:27;94623.53;;;16.54;49.44
20009;BME280;10165;42.662;23.260;2023-10-13T04:44:13;94629.94;;;16.39;50.06
20009;BME280;10165;42.662;23.260;2023-10-13T04:47:00;94634.03;;;16.59;49.44
20009;BME280;10165;42.662;23.260;2023-10-13T04:49:29;94645.47;;;16.53;49.63
20009;BME280;10165;42.662;23.260;2023-10-13T04:52:17;94641.13;;;16.45;50.17
20009;BME280;10165;42.662;23.260;2023-10-13T04:55:22;94650.13;;;16.56;49.85
20009;BME280;10165;42.662;23.260;2023-10-13T04:58:07;94657.31;;;16.75;49.57
20009;BME280;10165;42.662;23.260;2023-10-13T05:00:41;94659.56;;;16.69;49.59
20009;BME280;10165;42.662;23.260;2023-10-13T05:03:43;94665.47;;;16.78;49.56
20009;BME280;10165;42.662;23.260;2023-10-13T05:06:28;94668.88;;;16.75;49.50
20009;BME280;10165;42.662;23.260;2023-10-13T05:09:12;94663.13;;;16.77;49.47
20009;BME280;10165;42.662;23.260;2023-10-13T05:11:58;94670.44;;;16.76;49.61
20009;BME280;10165;42.662;23.260;2023-10-13T05:14:43;94663.78;;;16.66;49.71
20009;BME280;10165;42.662;23.260;2023-10-13T05:17:28;94673.72;;;16.59;50.05
20009;BME280;10165;42.662;23.260;2023-10-13T05:20:14;94675.75;;;16.69;49.93
20009;BME280;10165;42.662;23.260;2023-10-13T05:22:59;94681.22;;;16.76;49.90
20009;BME280;10165;42.662;23.260;2023-10-13T05:25:45;94682.28;;;16.68;50.20
20009;BME280;10165;42.662;23.260;2023-10-13T05:28:30;94684.69;;;16.77;49.91
20009;BME280;10165;42.662;23.260;2023-10-13T05:31:16;94683.69;;;16.92;49.71
20009;BME280;10165;42.662;23.260;2023-10-13T05:34:01;94686.72;;;16.87;49.78
20009;BME280;10165;42.662;23.260;2023-10-13T05:36:46;94685.28;;;16.96;49.69
20009;BME280;10165;42.662;23.260;2023-10-13T05:39:31;94689.53;;;16.94;49.77
20009;BME280;10165;42.662;23.260;2023-10-13T05:42:16;94693.03;;;16.98;49.72
20009;BME280;10165;42.662;23.260;2023-10-13T05:45:02;94695.81;;;17.05;49.59
20009;BME280;10165;42.662;23.260;2023-10-13T05:47:44;94699.22;;;17.02;49.84
20009;BME280;10165;42.662;23.260;2023-10-13T05:50:17;94701.16;;;17.01;49.86
20009;BME280;10165;42.662;23.260;2023-10-13T05:52:48;94704.28;;;17.07;49.85
20009;BME280;10165;42.662;23.260;2023-10-13T05:55:27;94695.44;;;17.10;49.82
20009;BME280;10165;42.662;23.260;2023-10-13T05:58:14;94697.06;;;17.18;49.67
20009;BME280;10165;42.662;23.260;2023-10-13T06:00:59;94694.91;;;16.94;50.42
20009;BME280;10165;42.662;23.260;2023-10-13T06:03:45;94700.78;;;16.66;51.09
20009;BME280;10165;42.662;23.260;2023-10-13T06:06:30;94697.22;;;16.95;50.64
20009;BME280;10165;42.662;23.260;2023-10-13T06:09:15;94698.16;;;17.10;50.17
20009;BME280;10165;42.662;23.260;2023-10-13T06:12:00;94700.78;;;17.03;50.47
20009;BME280;10165;42.662;23.260;2023-10-13T06:14:46;94699.41;;;17.19;50.07
20009;BME280;10165;42.662;23.260;2023-10-13T06:17:33;94709.56;;;17.33;49.61
20009;BME280;10165;42.662;23.260;2023-10-13T06:20:19;94705.47;;;17.50;49.34
20009;BME280;10165;42.662;23.260;2023-10-13T06:23:15;94710.59;;;17.58;48.97
20009;BME280;10165;42.662;23.260;2023-10-13T06:26:14;94721.47;;;16.92;50.84
20009;BME280;10165;42.662;23.260;2023-10-13T06:29:00;94723.56;;;17.46;49.71
20009;BME280;10165;42.662;23.260;2023-10-13T06:31:27;94729.06;;;17.56;49.65
20009;BME280;10165;42.662;23.260;2023-10-13T06:33:54;94727.63;;;17.62;49.19
20009;BME280;10165;42.662;23.260;2023-10-13T06:36:22;94721.91;;;17.75;49.27
20009;BME280;10165;42.662;23.260;2023-10-13T06:38:49;94719.63;;;17.80;49.03
20009;BME280;10165;42.662;23.260;2023-10-13T06:41:22;94727.34;;;17.78;48.95
20009;BME280;10165;42.662;23.260;2023-10-13T06:43:57;94723.09;;;17.77;49.10
20009;BME280;10165;42.662;23.260;2023-10-13T06:46:27;94721.16;;;17.74;49.44
20009;BME280;10165;42.662;23.260;2023-10-13T06:48:55;94724.69;;;17.82;49.44
20009;BME280;10165;42.662;23.260;2023-10-13T06:51:26;94725.56;;;17.96;49.21
20009;BME280;10165;42.662;23.260;2023-10-13T06:54:05;94717.94;;;18.09;48.97
20009;BME280;10165;42.662;23.260;2023-10-13T06:56:36;94717.31;;;17.79;49.21
20009;BME280;10165;42.662;23.260;2023-10-13T06:59:06;94718.81;;;18.27;48.56
20009;BME280;10165;42.662;23.260;2023-10-13T07:01:33;94724.25;;;18.38;47.86
20009;BME280;10165;42.662;23.260;2023-10-13T07:04:08;94713.56;;;18.55;47.68
20009;BME280;10165;42.662;23.260;2023-10-13T07:06:43;94707.84;;;18.75;47.13
20009;BME280;10165;42.662;23.260;2023-10-13T07:09:52;94697.22;;;18.38;47.66
20009;BME280;10165;42.662;23.260;2023-10-13T07:12:22;94698.59;;;18.10;48.07
20009;BME280;10165;42.662;23.260;2023-10-13T07:14:59;94690.41;;;18.65;47.19
20009;BME280;10165;42.662;23.260;2023-10-13T07:17:37;94701.34;;;18.93;46.97
20009;BME280;10165;42.662;23.260;2023-10-13T07:20:11;94711.31;;;18.75;46.71
20009;BME280;10165;42.662;23.260;2023-10-13T07:22:42;94713.31;;;18.85;46.76
20009;BME280;10165;42.662;23.260;2023-10-13T07:25:22;94718.34;;;18.90;46.17
20009;BME280;10165;42.662;23.260;2023-10-13T07:27:53;94722.16;;;18.75;46.55
20009;BME280;10165;42.662;23.260;2023-10-13T07:30:20;94713.00;;;19.12;45.93
20009;BME280;10165;42.662;23.260;2023-10-13T07:32:53;94714.94;;;19.29;45.50
20009;BME280;10165;42.662;23.260;2023-10-13T07:35:21;94720.81;;;19.48;44.99
20009;BME280;10165;42.662;23.260;2023-10-13T07:37:52;94715.03;;;19.57;44.70
20009;BME280;10165;42.662;23.260;2023-10-13T07:40:21;94712.28;;;19.39;44.64
20009;BME280;10165;42.662;23.260;2023-10-13T07:42:55;94707.28;;;19.48;44.85
20009;BME280;10165;42.662;23.260;2023-10-13T07:45:27;94700.72;;;19.88;44.51
20009;BME280;10165;42.662;23.260;2023-10-13T07:48:07;94699.94;;;19.77;44.49
20009;BME280;10165;42.662;23.260;2023-10-13T07:50:57;94700.72;;;19.85;44.58
20009;BME280;10165;42.662;23.260;2023-10-13T07:53:25;94704.97;;;19.75;44.67
20009;BME280;10165;42.662;23.260;2023-10-13T07:55:54;94701.47;;;19.57;44.92
20009;BME280;10165;42.662;23.260;2023-10-13T07:58:29;94698.38;;;19.87;44.28
20009;BME280;10165;42.662;23.260;2023-10-13T08:00:58;94703.03;;;19.72;44.49
20009;BME280;10165;42.662;23.260;2023-10-13T08:03:28;94694.47;;;20.13;43.56
20009;BME280;10165;42.662;23.260;2023-10-13T08:06:12;94689.84;;;19.95;43.98
20009;BME280;10165;42.662;23.260;2023-10-13T08:08:39;94686.31;;;20.23;43.89
20009;BME280;10165;42.662;23.260;2023-10-13T08:11:11;94681.63;;;20.48;43.23
20009;BME280;10165;42.662;23.260;2023-10-13T08:13:55;94685.44;;;20.65;42.98
20009;BME280;10165;42.662;23.260;2023-10-13T08:16:39;94691.66;;;20.55;42.99
20009;BME280;10165;42.662;23.260;2023-10-13T08:19:24;94692.81;;;20.61;43.09
20009;BME280;10165;42.662;23.260;2023-10-13T08:21:55;94686.50;;;20.85;42.86
20009;BME280;10165;42.662;23.260;2023-10-13T08:24:26;94700.19;;;20.64;42.50
20009;BME280;10165;42.662;23.260;2023-10-13T08:27:03;94705.50;;;20.89;42.21
20009;BME280;10165;42.662;23.260;2023-10-13T08:29:46;94721.41;;;20.90;42.21
20009;BME280;10165;42.662;23.260;2023-10-13T08:32:23;94724.50;;;20.96;42.17
20009;BME280;10165;42.662;23.260;2023-10-13T08:34:57;94719.81;;;21.00;41.91
20009;BME280;10165;42.662;23.260;2023-10-13T08:37:29;94708.72;;;21.46;41.21
20009;BME280;10165;42.662;23.260;2023-10-13T08:40:00;94701.34;;;20.60;42.32
20009;BME280;10165;42.662;23.260;2023-10-13T08:42:37;94688.34;;;21.13;41.76
20009;BME280;10165;42.662;23.260;2023-10-13T08:45:12;94689.00;;;21.31;41.55
20009;BME280;10165;42.662;23.260;2023-10-13T08:47:58;94692.84;;;21.37;41.74
20009;BME280;10165;42.662;23.260;2023-10-13T08:50:51;94686.59;;;21.40;41.89
20009;BME280;10165;42.662;23.260;2023-10-13T08:53:28;94689.31;;;21.40;41.58
20009;BME280;10165;42.662;23.260;2023-10-13T08:56:02;94694.69;;;21.51;41.51
20009;BME280;10165;42.662;23.260;2023-10-13T08:58:45;94689.22;;;21.55;41.57
20009;BME280;10165;42.662;23.260;2023-10-13T09:01:30;94697.06;;;21.45;41.49
20009;BME280;10165;42.662;23.260;2023-10-13T09:04:14;94689.91;;;21.66;41.21
20009;BME280;10165;42.662;23.260;2023-10-13T09:12:14;94689.19;;;21.62;41.01
20009;BME280;10165;42.662;23.260;2023-10-13T09:14:42;94682.34;;;21.95;40.90
20009;BME280;10165;42.662;23.260;2023-10-13T09:17:14;94682.38;;;22.28;40.30
20009;BME280;10165;42.662;23.260;2023-10-13T09:20:00;94687.69;;;22.42;39.97
20009;BME280;10165;42.662;23.260;2023-10-13T09:22:46;94675.75;;;22.67;39.67
20009;BME280;10165;42.662;23.260;2023-10-13T09:25:32;94677.72;;;22.97;39.16
20009;BME280;10165;42.662;23.260;2023-10-13T09:28:12;94667.50;;;23.04;38.29
20009;BME280;10165;42.662;23.260;2023-10-13T09:30:44;94655.44;;;23.32;37.67
20009;BME280;10165;42.662;23.260;2023-10-13T09:33:13;94665.50;;;23.62;37.02
20009;BME280;10165;42.662;23.260;2023-10-13T09:35:47;94663.06;;;23.44;36.33
20009;BME280;10165;42.662;23.260;2023-10-13T09:38:16;94671.94;;;23.75;36.10
20009;BME280;10165;42.662;23.260;2023-10-13T09:40:44;94662.59;;;23.76;35.70
20009;BME280;10165;42.662;23.260;2023-10-13T09:43:17;94659.19;;;23.45;35.87
20009;BME280;10165;42.662;23.260;2023-10-13T09:45:48;94654.97;;;23.64;35.87
20009;BME280;10165;42.662;23.260;2023-10-13T09:48:37;94650.19;;;23.18;36.23
20009;BME280;10165;42.662;23.260;2023-10-13T09:51:15;94655.19;;;23.50;35.67
20009;BME280;10165;42.662;23.260;2023-10-13T09:53:55;94644.28;;;23.73;35.26
20009;BME280;10165;42.662;23.260;2023-10-13T09:57:29;94642.28;;;23.77;34.64
20009;BME280;10165;42.662;23.260;2023-10-13T09:59:56;94649.00;;;23.72;34.69
20009;BME280;10165;42.662;23.260;2023-10-13T10:02:34;94642.22;;;23.80;34.58
20009;BME280;10165;42.662;23.260;2023-10-13T10:05:01;94644.06;;;23.64;34.22
20009;BME280;10165;42.662;23.260;2023-10-13T10:07:55;94634.97;;;23.94;33.78
20009;BME280;10165;42.662;23.260;2023-10-13T10:16:37;94620.34;;;24.27;33.70
20009;BME280;10165;42.662;23.260;2023-10-13T10:19:08;94629.00;;;24.25;33.66
20009;BME280;10165;42.662;23.260;2023-10-13T10:25:01;94619.66;;;24.23;33.41
20009;BME280;10165;42.662;23.260;2023-10-13T10:27:55;94616.50;;;24.24;33.06
20009;BME280;10165;42.662;23.260;2023-10-13T10:30:29;94607.97;;;24.62;33.17
20009;BME280;10165;42.662;23.260;2023-10-13T10:33:00;94611.41;;;24.86;33.36
20009;BME280;10165;42.662;23.260;2023-10-13T10:35:33;94612.88;;;24.51;32.78
20009;BME280;10165;42.662;23.260;2023-10-13T10:38:10;94612.09;;;24.70;31.95
20009;BME280;10165;42.662;23.260;2023-10-13T10:41:04;94606.91;;;24.75;32.20
20009;BME280;10165;42.662;23.260;2023-10-13T10:46:13;94606.69;;;25.22;32.30
20009;BME280;10165;42.662;23.260;2023-10-13T10:48:46;94603.53;;;25.23;31.46
20009;BME280;10165;42.662;23.260;2023-10-13T10:51:14;94613.69;;;25.23;31.35
20009;BME280;10165;42.662;23.260;2023-10-13T10:53:54;94608.19;;;25.07;29.71
20009;BME280;10165;42.662;23.260;2023-10-13T10:56:24;94606.06;;;25.14;29.73
20009;BME280;10165;42.662;23.260;2023-10-13T10:59:11;94606.22;;;25.07;29.16
20009;BME280;10165;42.662;23.260;2023-10-13T11:01:51;94599.31;;;25.03;29.24
20009;BME280;10165;42.662;23.260;2023-10-13T11:04:18;94605.22;;;25.17;29.03
20009;BME280;10165;42.662;23.260;2023-10-13T11:06:52;94601.13;;;25.42;28.88
20009;BME280;10165;42.662;23.260;2023-10-13T11:09:27;94601.63;;;25.56;28.80
20009;BME280;10165;42.662;23.260;2023-10-13T11:11:54;94584.84;;;25.54;29.63
20009;BME280;10165;42.662;23.260;2023-10-13T11:14:28;94597.56;;;25.61;29.65
20009;BME280;10165;42.662;23.260;2023-10-13T11:16:57;94582.16;;;25.51;28.95
20009;BME280;10165;42.662;23.260;2023-10-13T11:19:43;94584.66;;;25.29;29.00
20009;BME280;10165;42.662;23.260;2023-10-13T11:22:14;94588.22;;;25.42;28.68
20009;BME280;10165;42.662;23.260;2023-10-13T11:25:03;94583.88;;;25.29;28.65
20009;BME280;10165;42.662;23.260;2023-10-13T11:27:40;94582.94;;;25.51;27.78
20009;BME280;10165;42.662;23.260;2023-10-13T11:30:27;94582.59;;;25.49;28.02
20009;BME280;10165;42.662;23.260;2023-10-13T11:33:05;94572.78;;;25.68;29.32
20009;BME280;10165;42.662;23.260;2023-10-13T11:35:37;94567.13;;;25.75;28.91
20009;BME280;10165;42.662;23.260;2023-10-13T11:38:33;94562.38;;;25.92;27.90
20009;BME280;10165;42.662;23.260;2023-10-13T11:41:15;94564.91;;;25.54;27.73
20009;BME280;10165;42.662;23.260;2023-10-13T11:43:51;94559.84;;;25.85;27.58
20009;BME280;10165;42.662;23.260;2023-10-13T11:46:27;94553.66;;;25.52;27.91
20009;BME280;10165;42.662;23.260;2023-10-13T11:49:17;94553.50;;;25.88;26.73
20009;BME280;10165;42.662;23.260;2023-10-13T11:51:44;94559.03;;;26.00;27.20
20009;BME280;10165;42.662;23.260;2023-10-13T11:54:19;94559.03;;;25.55;27.14
20009;BME280;10165;42.662;23.260;2023-10-13T11:56:49;94556.22;;;25.88;27.05
20009;BME280;10165;42.662;23.260;2023-10-13T11:59:16;94545.84;;;25.95;26.79
20009;BME280;10165;42.662;23.260;2023-10-13T12:01:50;94548.44;;;26.15;27.49
20009;BME280;10165;42.662;23.260;2023-10-13T12:04:37;94542.41;;;26.07;26.48
20009;BME280;10165;42.662;23.260;2023-10-13T12:07:15;94536.66;;;25.73;26.83
20009;BME280;10165;42.662;23.260;2023-10-13T12:10:12;94537.91;;;26.01;26.77
20009;BME280;10165;42.662;23.260;2023-10-13T12:12:43;94538.50;;;25.92;26.85
20009;BME280;10165;42.662;23.260;2023-10-13T12:15:13;94536.22;;;26.20;26.31
20009;BME280;10165;42.662;23.260;2023-10-13T12:17:52;94537.00;;;26.20;nan
20009;BME280;10165;42.662;23.260;2023-10-13T12:20:19;94533.66;;;26.12;26.29
20009;BME280;10165;42.662;23.260;2023-10-13T12:22:59;94529.59;;;26.33;26.08
20009;BME280;10165;42.662;23.260;2023-10-13T12:25:38;94525.88;;;26.52;25.51
20009;BME280;10165;42.662;23.260;2023-10-13T12:28:24;94530.91;;;26.41;25.80
20009;BME280;10165;42.662;23.260;2023-10-13T12:30:54;94531.16;;;26.18;25.94
20009;BME280;10165;42.662;23.260;2023-10-13T12:33:24;94524.00;;;26.08;25.70
20009;BME280;10165;42.662;23.260;2023-10-13T12:35:59;94521.25;;;26.24;25.65
20009;BME280;10165;42.662;23.260;2023-10-13T12:38:41;94516.13;;;26.39;26.82
20009;BME280;10165;42.662;23.260;2023-10-13T12:41:14;94514.03;;;26.43;26.09
20009;BME280;10165;42.662;23.260;2023-10-13T12:44:03;94511.66;;;26.57;25.59
20009;BME280;10165;42.662;23.260;2023-10-13T12:46:50;94521.81;;;26.32;25.74
20009;BME280;10165;42.662;23.260;2023-10-13T12:49:36;94518.53;;;26.37;25.28
20009;BME280;10165;42.662;23.260;2023-10-13T12:52:11;94513.72;;;26.41;25.70
20009;BME280;10165;42.662;23.260;2023-10-13T12:54:52;94517.66;;;26.40;24.72
20009;BME280;10165;42.662;23.260;2023-10-13T12:57:25;94514.16;;;26.10;25.15
20009;BME280;10165;42.662;23.260;2023-10-13T12:59:53;94516.19;;;26.23;25.22
20009;BME280;10165;42.662;23.260;2023-10-13T13:02:24;94508.56;;;26.43;24.86
20009;BME280;10165;42.662;23.260;2023-10-13T13:04:56;94513.63;;;26.44;26.31
20009;BME280;10165;42.662;23.260;2023-10-13T13:07:29;94506.59;;;26.43;25.43
20009;BME280;10165;42.662;23.260;2023-10-13T13:09:56;94509.66;;;26.33;25.38
20009;BME280;10165;42.662;23.260;2023-10-13T13:12:26;94504.63;;;26.15;25.38
20009;BME280;10165;42.662;23.260;2023-10-13T13:14:54;94505.50;;;26.41;24.81
20009;BME280;10165;42.662;23.260;2023-10-13T13:17:21;94507.47;;;26.40;24.96
20009;BME280;10165;42.662;23.260;2023-10-13T13:19:48;94500.66;;;26.03;25.64
20009;BME280;10165;42.662;23.260;2023-10-13T13:22:15;94505.16;;;26.39;25.31
20009;BME280;10165;42.662;23.260;2023-10-13T13:24:44;94500.78;;;26.54;25.34
20009;BME280;10165;42.662;23.260;2023-10-13T13:27:15;94504.72;;;26.53;24.45
20009;BME280;10165;42.662;23.260;2023-10-13T13:29:46;94506.41;;;26.63;25.23
20009;BME280;10165;42.662;23.260;2023-10-13T13:32:13;94505.63;;;26.50;26.47
20009;BME280;10165;42.662;23.260;2023-10-13T13:34:51;94509.00;;;26.41;25.16
20009;BME280;10165;42.662;23.260;2023-10-13T13:37:25;94494.44;;;26.57;24.85
20009;BME280;10165;42.662;23.260;2023-10-13T13:39:55;94503.88;;;26.69;24.95
20009;BME280;10165;42.662;23.260;2023-10-13T13:42:22;94500.25;;;26.59;24.91
20009;BME280;10165;42.662;23.260;2023-10-13T13:44:49;94502.56;;;26.48;25.13
20009;BME280;10165;42.662;23.260;2023-10-13T13:47:16;94498.81;;;26.54;24.71
20009;BME280;10165;42.662;23.260;2023-10-13T13:49:43;94506.28;;;26.54;25.11
20009;BME280;10165;42.662;23.260;2023-10-13T13:52:18;94504.97;;;26.58;25.45
20009;BME280;10165;42.662;23.260;2023-10-13T13:54:49;94508.03;;;26.60;24.50
20009;BME280;10165;42.662;23.260;2023-10-13T13:57:16;94510.78;;;26.60;24.32